sensor_id;sensor_type;location;lat;lon;timestamp;temperature;humidity
827;DHT22;395;48.132;11.608;2022-10-16T00:01:46;16.40;21.50
827;DHT22;395;48.132;11.608;2022-10-16T00:04:12;16.40;21.60
827;DHT22;395;48.132;11.608;2022-10-16T00:06:38;16.40;21.60
827;DHT22;395;48.132;11.608;2022-10-16T00:09:03;16.40;21.80
827;DHT22;395;48.132;11.608;2022-10-16T00:11:32;16.40;21.80
827;DHT22;395;48.132;11.608;2022-10-16T00:14:05;16.30;21.90
827;DHT22;395;48.132;11.608;2022-10-16T00:16:31;16.30;21.90
827;DHT22;395;48.132;11.608;2022-10-16T00:18:57;16.30;22.00
827;DHT22;395;48.132;11.608;2022-10-16T00:21:25;16.30;21.90
827;DHT22;395;48.132;11.608;2022-10-16T00:23:57;16.30;22.30
827;DHT22;395;48.132;11.608;2022-10-16T00:26:25;16.30;22.30
827;DHT22;395;48.132;11.608;2022-10-16T00:28:51;16.30;22.10
827;DHT22;395;48.132;11.608;2022-10-16T00:31:19;16.30;22.10
827;DHT22;395;48.132;11.608;2022-10-16T00:33:45;16.20;22.20
827;DHT22;395;48.132;11.608;2022-10-16T00:36:17;16.20;22.50
827;DHT22;395;48.132;11.608;2022-10-16T00:38:43;16.20;22.40
827;DHT22;395;48.132;11.608;2022-10-16T00:41:18;16.20;22.40
827;DHT22;395;48.132;11.608;2022-10-16T00:43:55;16.20;22.50
827;DHT22;395;48.132;11.608;2022-10-16T00:48:54;16.20;22.10
827;DHT22;395;48.132;11.608;2022-10-16T00:51:27;16.20;22.30
827;DHT22;395;48.132;11.608;2022-10-16T00:53:55;16.10;22.10
827;DHT22;395;48.132;11.608;2022-10-16T00:56:21;16.10;21.90
827;DHT22;395;48.132;11.608;2022-10-16T00:58:47;16.10;21.90
827;DHT22;395;48.132;11.608;2022-10-16T01:01:13;16.10;21.90
827;DHT22;395;48.132;11.608;2022-10-16T01:03:39;16.10;21.90
827;DHT22;395;48.132;11.608;2022-10-16T01:06:11;16.10;21.80
827;DHT22;395;48.132;11.608;2022-10-16T01:09:02;16.10;21.60
827;DHT22;395;48.132;11.608;2022-10-16T01:11:34;16.10;21.60
827;DHT22;395;48.132;11.608;2022-10-16T01:14:13;16.10;21.60
827;DHT22;395;48.132;11.608;2022-10-16T01:16:59;16.10;21.50
827;DHT22;395;48.132;11.608;2022-10-16T01:19:29;16.10;21.70
827;DHT22;395;48.132;11.608;2022-10-16T01:21:57;16.10;21.90
827;DHT22;395;48.132;11.608;2022-10-16T01:27:09;16.10;21.90
827;DHT22;395;48.132;11.608;2022-10-16T01:34:54;16.10;21.80
827;DHT22;395;48.132;11.608;2022-10-16T01:37:38;16.00;21.40
827;DHT22;395;48.132;11.608;2022-10-16T01:40:09;16.00;21.80
827;DHT22;395;48.132;11.608;2022-10-16T01:42:40;16.10;21.60
827;DHT22;395;48.132;11.608;2022-10-16T01:45:07;16.10;21.40
827;DHT22;395;48.132;11.608;2022-10-16T01:47:37;16.00;21.30
827;DHT22;395;48.132;11.608;2022-10-16T01:50:05;16.10;21.50
827;DHT22;395;48.132;11.608;2022-10-16T01:52:37;16.00;21.10
827;DHT22;395;48.132;11.608;2022-10-16T01:55:06;16.00;20.80
827;DHT22;395;48.132;11.608;2022-10-16T01:57:35;16.00;20.70
827;DHT22;395;48.132;11.608;2022-10-16T02:00:06;16.10;20.70
827;DHT22;395;48.132;11.608;2022-10-16T02:02:33;16.10;20.80
827;DHT22;395;48.132;11.608;2022-10-16T02:07:35;16.10;20.60
827;DHT22;395;48.132;11.608;2022-10-16T02:10:01;16.00;20.60
827;DHT22;395;48.132;11.608;2022-10-16T02:12:29;16.10;20.50
827;DHT22;395;48.132;11.608;2022-10-16T02:14:56;16.00;20.30
827;DHT22;395;48.132;11.608;2022-10-16T02:17:22;16.00;20.30
827;DHT22;395;48.132;11.608;2022-10-16T02:19:49;16.00;20.00
827;DHT22;395;48.132;11.608;2022-10-16T02:22:34;15.90;20.00
827;DHT22;395;48.132;11.608;2022-10-16T02:25:24;15.90;20.00
827;DHT22;395;48.132;11.608;2022-10-16T02:28:00;15.90;20.00
827;DHT22;395;48.132;11.608;2022-10-16T02:30:42;15.90;20.30
827;DHT22;395;48.132;11.608;2022-10-16T02:33:11;15.90;20.20
827;DHT22;395;48.132;11.608;2022-10-16T02:35:40;15.90;20.20
827;DHT22;395;48.132;11.608;2022-10-16T02:38:07;15.80;20.10
827;DHT22;395;48.132;11.608;2022-10-16T02:40:34;15.80;20.00
827;DHT22;395;48.132;11.608;2022-10-16T02:43:00;15.80;20.00
827;DHT22;395;48.132;11.608;2022-10-16T02:45:28;15.80;20.00
827;DHT22;395;48.132;11.608;2022-10-16T02:47:54;15.80;20.10
827;DHT22;395;48.132;11.608;2022-10-16T02:50:20;15.80;19.90
827;DHT22;395;48.132;11.608;2022-10-16T02:52:46;15.70;20.10
827;DHT22;395;48.132;11.608;2022-10-16T02:55:11;15.80;20.00
827;DHT22;395;48.132;11.608;2022-10-16T02:57:37;15.80;20.10
827;DHT22;395;48.132;11.608;2022-10-16T03:00:08;15.70;20.00
827;DHT22;395;48.132;11.608;2022-10-16T03:02:35;15.70;19.90
827;DHT22;395;48.132;11.608;2022-10-16T03:05:00;15.80;19.90
827;DHT22;395;48.132;11.608;2022-10-16T03:07:26;15.70;19.80
827;DHT22;395;48.132;11.608;2022-10-16T03:09:52;15.70;19.60
827;DHT22;395;48.132;11.608;2022-10-16T03:12:17;15.70;19.60
827;DHT22;395;48.132;11.608;2022-10-16T03:14:43;15.70;19.60
827;DHT22;395;48.132;11.608;2022-10-16T03:17:09;15.70;19.60
827;DHT22;395;48.132;11.608;2022-10-16T03:19:34;15.70;19.50
827;DHT22;395;48.132;11.608;2022-10-16T03:22:01;15.70;19.50
827;DHT22;395;48.132;11.608;2022-10-16T03:24:27;15.60;19.50
827;DHT22;395;48.132;11.608;2022-10-16T03:26:52;15.70;19.80
827;DHT22;395;48.132;11.608;2022-10-16T03:29:18;15.60;19.50
827;DHT22;395;48.132;11.608;2022-10-16T03:31:44;15.60;19.50
827;DHT22;395;48.132;11.608;2022-10-16T03:34:09;15.60;19.60
827;DHT22;395;48.132;11.608;2022-10-16T03:36:35;15.60;19.50
827;DHT22;395;48.132;11.608;2022-10-16T03:39:03;15.60;19.60
827;DHT22;395;48.132;11.608;2022-10-16T03:41:29;15.60;19.50
827;DHT22;395;48.132;11.608;2022-10-16T03:43:55;15.70;19.70
827;DHT22;395;48.132;11.608;2022-10-16T03:46:20;15.70;19.60
827;DHT22;395;48.132;11.608;2022-10-16T03:48:46;15.70;19.70
827;DHT22;395;48.132;11.608;2022-10-16T03:51:11;15.70;19.90
827;DHT22;395;48.132;11.608;2022-10-16T03:53:37;15.70;20.60
827;DHT22;395;48.132;11.608;2022-10-16T03:56:03;15.70;20.10
827;DHT22;395;48.132;11.608;2022-10-16T03:58:28;15.70;19.60
827;DHT22;395;48.132;11.608;2022-10-16T04:00:54;15.80;19.60
827;DHT22;395;48.132;11.608;2022-10-16T04:03:20;15.80;19.30
827;DHT22;395;48.132;11.608;2022-10-16T04:05:46;15.80;19.10
827;DHT22;395;48.132;11.608;2022-10-16T04:08:12;15.90;18.70
827;DHT22;395;48.132;11.608;2022-10-16T04:10:37;15.90;18.70
827;DHT22;395;48.132;11.608;2022-10-16T04:13:03;15.90;18.40
827;DHT22;395;48.132;11.608;2022-10-16T04:15:29;15.90;18.40
827;DHT22;395;48.132;11.608;2022-10-16T04:17:55;15.90;18.00
827;DHT22;395;48.132;11.608;2022-10-16T04:20:20;15.90;18.00
827;DHT22;395;48.132;11.608;2022-10-16T04:22:46;16.00;17.70
827;DHT22;395;48.132;11.608;2022-10-16T04:25:12;15.90;17.60
827;DHT22;395;48.132;11.608;2022-10-16T04:27:38;16.00;17.80
827;DHT22;395;48.132;11.608;2022-10-16T04:30:04;16.00;17.80
827;DHT22;395;48.132;11.608;2022-10-16T04:32:30;16.00;17.70
827;DHT22;395;48.132;11.608;2022-10-16T04:34:56;16.00;17.50
827;DHT22;395;48.132;11.608;2022-10-16T04:37:26;16.00;17.40
827;DHT22;395;48.132;11.608;2022-10-16T04:39:52;16.00;17.40
827;DHT22;395;48.132;11.608;2022-10-16T04:42:18;15.90;17.20
827;DHT22;395;48.132;11.608;2022-10-16T04:44:44;15.90;17.00
827;DHT22;395;48.132;11.608;2022-10-16T04:47:09;15.90;17.00
827;DHT22;395;48.132;11.608;2022-10-16T04:49:35;15.90;17.00
827;DHT22;395;48.132;11.608;2022-10-16T04:52:01;15.90;17.10
827;DHT22;395;48.132;11.608;2022-10-16T04:54:26;15.90;17.10
827;DHT22;395;48.132;11.608;2022-10-16T04:56:52;15.90;17.00
827;DHT22;395;48.132;11.608;2022-10-16T04:59:19;15.90;17.00
827;DHT22;395;48.132;11.608;2022-10-16T05:01:45;15.90;16.90
827;DHT22;395;48.132;11.608;2022-10-16T05:04:11;15.90;17.10
827;DHT22;395;48.132;11.608;2022-10-16T05:06:38;15.90;17.00
827;DHT22;395;48.132;11.608;2022-10-16T05:09:04;15.90;17.20
827;DHT22;395;48.132;11.608;2022-10-16T05:11:30;15.90;17.20
827;DHT22;395;48.132;11.608;2022-10-16T05:13:56;15.90;17.30
827;DHT22;395;48.132;11.608;2022-10-16T05:16:22;15.90;17.50
827;DHT22;395;48.132;11.608;2022-10-16T05:18:47;15.90;17.30
827;DHT22;395;48.132;11.608;2022-10-16T05:21:13;15.90;17.40
827;DHT22;395;48.132;11.608;2022-10-16T05:23:38;15.90;17.30
827;DHT22;395;48.132;11.608;2022-10-16T05:26:04;15.90;17.40
827;DHT22;395;48.132;11.608;2022-10-16T05:28:31;15.90;17.70
827;DHT22;395;48.132;11.608;2022-10-16T05:30:57;15.90;17.70
827;DHT22;395;48.132;11.608;2022-10-16T05:33:24;15.90;17.60
827;DHT22;395;48.132;11.608;2022-10-16T05:35:51;15.90;17.50
827;DHT22;395;48.132;11.608;2022-10-16T05:38:17;15.90;17.50
827;DHT22;395;48.132;11.608;2022-10-16T05:40:43;16.00;17.50
827;DHT22;395;48.132;11.608;2022-10-16T05:43:15;15.90;17.60
827;DHT22;395;48.132;11.608;2022-10-16T05:45:40;16.00;17.50
827;DHT22;395;48.132;11.608;2022-10-16T05:48:06;16.00;17.50
827;DHT22;395;48.132;11.608;2022-10-16T05:50:32;16.00;17.70
827;DHT22;395;48.132;11.608;2022-10-16T05:52:57;16.00;18.10
827;DHT22;395;48.132;11.608;2022-10-16T05:55:23;16.10;18.30
827;DHT22;395;48.132;11.608;2022-10-16T05:57:48;16.00;17.70
827;DHT22;395;48.132;11.608;2022-10-16T06:00:14;16.10;17.80
827;DHT22;395;48.132;11.608;2022-10-16T06:02:40;16.10;17.90
827;DHT22;395;48.132;11.608;2022-10-16T06:05:05;16.10;17.80
827;DHT22;395;48.132;11.608;2022-10-16T06:07:34;16.10;18.20
827;DHT22;395;48.132;11.608;2022-10-16T06:10:01;16.10;17.50
827;DHT22;395;48.132;11.608;2022-10-16T06:12:26;16.10;17.40
827;DHT22;395;48.132;11.608;2022-10-16T06:14:52;16.10;17.40
827;DHT22;395;48.132;11.608;2022-10-16T06:17:18;16.10;17.40
827;DHT22;395;48.132;11.608;2022-10-16T06:19:44;16.10;17.40
827;DHT22;395;48.132;11.608;2022-10-16T06:22:09;16.10;17.30
827;DHT22;395;48.132;11.608;2022-10-16T06:24:35;16.00;17.00
827;DHT22;395;48.132;11.608;2022-10-16T06:27:01;16.10;17.10
827;DHT22;395;48.132;11.608;2022-10-16T06:29:28;16.10;17.20
827;DHT22;395;48.132;11.608;2022-10-16T06:31:53;16.10;17.30
827;DHT22;395;48.132;11.608;2022-10-16T06:34:19;16.10;17.30
827;DHT22;395;48.132;11.608;2022-10-16T06:36:45;16.10;17.40
827;DHT22;395;48.132;11.608;2022-10-16T06:39:10;16.10;17.30
827;DHT22;395;48.132;11.608;2022-10-16T06:41:36;16.10;17.30
827;DHT22;395;48.132;11.608;2022-10-16T06:44:05;16.10;17.20
827;DHT22;395;48.132;11.608;2022-10-16T06:46:30;16.20;17.30
827;DHT22;395;48.132;11.608;2022-10-16T06:48:56;16.10;17.10
827;DHT22;395;48.132;11.608;2022-10-16T06:51:23;16.10;17.00
827;DHT22;395;48.132;11.608;2022-10-16T06:53:51;16.20;16.70
827;DHT22;395;48.132;11.608;2022-10-16T06:56:21;16.20;16.60
827;DHT22;395;48.132;11.608;2022-10-16T06:58:46;16.20;16.60
827;DHT22;395;48.132;11.608;2022-10-16T07:01:13;16.20;16.70
827;DHT22;395;48.132;11.608;2022-10-16T07:03:41;16.20;16.60
827;DHT22;395;48.132;11.608;2022-10-16T07:06:09;16.20;16.50
827;DHT22;395;48.132;11.608;2022-10-16T07:08:37;16.20;16.60
827;DHT22;395;48.132;11.608;2022-10-16T07:11:15;16.20;16.60
827;DHT22;395;48.132;11.608;2022-10-16T07:13:43;16.30;16.70
827;DHT22;395;48.132;11.608;2022-10-16T07:16:19;16.30;16.80
827;DHT22;395;48.132;11.608;2022-10-16T07:18:46;16.30;16.80
827;DHT22;395;48.132;11.608;2022-10-16T07:21:15;16.30;16.60
827;DHT22;395;48.132;11.608;2022-10-16T07:23:42;16.30;16.70
827;DHT22;395;48.132;11.608;2022-10-16T07:26:08;16.40;16.90
827;DHT22;395;48.132;11.608;2022-10-16T07:28:35;16.40;16.80
827;DHT22;395;48.132;11.608;2022-10-16T07:31:10;16.40;16.80
827;DHT22;395;48.132;11.608;2022-10-16T07:33:37;16.40;16.80
827;DHT22;395;48.132;11.608;2022-10-16T07:36:03;16.50;16.70
827;DHT22;395;48.132;11.608;2022-10-16T07:38:29;16.50;16.40
827;DHT22;395;48.132;11.608;2022-10-16T07:40:59;16.50;16.40
827;DHT22;395;48.132;11.608;2022-10-16T07:43:26;16.50;16.60
827;DHT22;395;48.132;11.608;2022-10-16T07:45:52;16.60;17.10
827;DHT22;395;48.132;11.608;2022-10-16T07:48:18;16.60;17.30
827;DHT22;395;48.132;11.608;2022-10-16T07:50:44;16.60;16.90
827;DHT22;395;48.132;11.608;2022-10-16T07:53:10;16.70;17.10
827;DHT22;395;48.132;11.608;2022-10-16T07:55:36;16.70;17.20
827;DHT22;395;48.132;11.608;2022-10-16T07:58:01;16.80;16.90
827;DHT22;395;48.132;11.608;2022-10-16T08:00:27;16.80;16.70
827;DHT22;395;48.132;11.608;2022-10-16T08:02:52;16.90;16.40
827;DHT22;395;48.132;11.608;2022-10-16T08:05:18;16.90;16.40
827;DHT22;395;48.132;11.608;2022-10-16T08:07:49;17.00;16.30
827;DHT22;395;48.132;11.608;2022-10-16T08:10:19;17.00;15.80
827;DHT22;395;48.132;11.608;2022-10-16T08:12:45;17.10;15.80
827;DHT22;395;48.132;11.608;2022-10-16T08:15:10;17.10;15.80
827;DHT22;395;48.132;11.608;2022-10-16T08:17:36;17.20;15.90
827;DHT22;395;48.132;11.608;2022-10-16T08:20:02;17.30;15.50
827;DHT22;395;48.132;11.608;2022-10-16T08:22:28;17.30;15.00
827;DHT22;395;48.132;11.608;2022-10-16T08:24:54;17.40;14.40
827;DHT22;395;48.132;11.608;2022-10-16T08:27:19;17.40;13.70
827;DHT22;395;48.132;11.608;2022-10-16T08:29:45;17.50;13.10
827;DHT22;395;48.132;11.608;2022-10-16T08:32:11;17.60;12.50
827;DHT22;395;48.132;11.608;2022-10-16T08:34:36;17.60;11.90
827;DHT22;395;48.132;11.608;2022-10-16T08:37:02;17.70;11.60
827;DHT22;395;48.132;11.608;2022-10-16T08:39:28;17.70;11.00
827;DHT22;395;48.132;11.608;2022-10-16T08:49:43;18.10;9.70
827;DHT22;395;48.132;11.608;2022-10-16T08:52:13;18.10;9.10
827;DHT22;395;48.132;11.608;2022-10-16T08:54:45;18.20;8.20
827;DHT22;395;48.132;11.608;2022-10-16T08:57:20;18.30;7.40
827;DHT22;395;48.132;11.608;2022-10-16T08:59:46;18.30;6.70
827;DHT22;395;48.132;11.608;2022-10-16T09:07:52;18.50;5.60
827;DHT22;395;48.132;11.608;2022-10-16T09:15:44;18.70;5.00
827;DHT22;395;48.132;11.608;2022-10-16T09:18:40;18.80;4.70
827;DHT22;395;48.132;11.608;2022-10-16T09:21:26;18.80;4.00
827;DHT22;395;48.132;11.608;2022-10-16T09:23:58;18.90;3.50
827;DHT22;395;48.132;11.608;2022-10-16T09:26:24;18.90;2.60
827;DHT22;395;48.132;11.608;2022-10-16T09:28:52;19.00;2.40
827;DHT22;395;48.132;11.608;2022-10-16T09:31:21;19.10;2.10
827;DHT22;395;48.132;11.608;2022-10-16T09:33:52;19.10;2.10
827;DHT22;395;48.132;11.608;2022-10-16T09:36:20;19.20;1.60
827;DHT22;395;48.132;11.608;2022-10-16T09:38:47;19.20;1.40
827;DHT22;395;48.132;11.608;2022-10-16T09:41:21;19.20;1.30
827;DHT22;395;48.132;11.608;2022-10-16T09:43:48;19.30;1.30
827;DHT22;395;48.132;11.608;2022-10-16T09:46:35;19.30;1.00
827;DHT22;395;48.132;11.608;2022-10-16T09:49:21;19.30;1.00
827;DHT22;395;48.132;11.608;2022-10-16T09:51:47;19.40;1.00
827;DHT22;395;48.132;11.608;2022-10-16T09:54:19;19.50;1.00
827;DHT22;395;48.132;11.608;2022-10-16T09:56:45;19.50;1.00
827;DHT22;395;48.132;11.608;2022-10-16T10:01:53;19.60;1.00
827;DHT22;395;48.132;11.608;2022-10-16T10:04:20;19.60;1.00
827;DHT22;395;48.132;11.608;2022-10-16T10:06:48;19.70;1.00
827;DHT22;395;48.132;11.608;2022-10-16T10:09:48;19.70;1.00
827;DHT22;395;48.132;11.608;2022-10-16T10:12:27;19.80;1.00
827;DHT22;395;48.132;11.608;2022-10-16T10:14:56;19.80;1.00
827;DHT22;395;48.132;11.608;2022-10-16T10:17:26;19.80;1.00
827;DHT22;395;48.132;11.608;2022-10-16T10:20:01;19.90;1.00
827;DHT22;395;48.132;11.608;2022-10-16T10:22:40;20.00;1.00
827;DHT22;395;48.132;11.608;2022-10-16T10:33:36;20.20;1.00
827;DHT22;395;48.132;11.608;2022-10-16T10:39:01;20.30;1.00
827;DHT22;395;48.132;11.608;2022-10-16T10:50:25;20.50;1.00
827;DHT22;395;48.132;11.608;2022-10-16T10:56:02;20.60;1.00
827;DHT22;395;48.132;11.608;2022-10-16T11:01:18;20.80;1.00
827;DHT22;395;48.132;11.608;2022-10-16T11:04:15;20.80;1.00
827;DHT22;395;48.132;11.608;2022-10-16T11:09:47;20.90;1.00
827;DHT22;395;48.132;11.608;2022-10-16T11:12:34;20.80;1.00
827;DHT22;395;48.132;11.608;2022-10-16T11:15:03;20.90;1.00
827;DHT22;395;48.132;11.608;2022-10-16T11:17:40;21.00;1.00
827;DHT22;395;48.132;11.608;2022-10-16T11:20:26;21.00;1.00
827;DHT22;395;48.132;11.608;2022-10-16T11:25:27;21.00;1.00
827;DHT22;395;48.132;11.608;2022-10-16T11:30:34;21.10;1.00
827;DHT22;395;48.132;11.608;2022-10-16T11:33:08;21.20;1.00
827;DHT22;395;48.132;11.608;2022-10-16T11:35:48;21.20;1.00
827;DHT22;395;48.132;11.608;2022-10-16T11:38:29;21.20;1.00
827;DHT22;395;48.132;11.608;2022-10-16T11:41:01;21.20;1.00
827;DHT22;395;48.132;11.608;2022-10-16T11:43:37;21.30;1.00
827;DHT22;395;48.132;11.608;2022-10-16T11:46:18;21.30;1.00
827;DHT22;395;48.132;11.608;2022-10-16T11:49:13;21.40;1.00
827;DHT22;395;48.132;11.608;2022-10-16T11:51:43;21.40;1.00
827;DHT22;395;48.132;11.608;2022-10-16T11:57:01;21.50;1.00
827;DHT22;395;48.132;11.608;2022-10-16T11:59:48;21.60;1.00
827;DHT22;395;48.132;11.608;2022-10-16T12:08:15;21.70;1.00
827;DHT22;395;48.132;11.608;2022-10-16T12:10:44;21.80;1.00
827;DHT22;395;48.132;11.608;2022-10-16T12:13:36;21.80;1.00
827;DHT22;395;48.132;11.608;2022-10-16T12:18:38;21.80;1.00
827;DHT22;395;48.132;11.608;2022-10-16T12:21:05;21.80;1.00
827;DHT22;395;48.132;11.608;2022-10-16T12:23:32;21.90;1.00
827;DHT22;395;48.132;11.608;2022-10-16T12:25:59;22.10;1.00
827;DHT22;395;48.132;11.608;2022-10-16T12:28:32;22.20;1.00
827;DHT22;395;48.132;11.608;2022-10-16T12:31:08;22.20;1.00
827;DHT22;395;48.132;11.608;2022-10-16T12:33:43;22.20;1.00
827;DHT22;395;48.132;11.608;2022-10-16T12:36:33;22.30;1.00
827;DHT22;395;48.132;11.608;2022-10-16T12:39:00;22.30;1.00
827;DHT22;395;48.132;11.608;2022-10-16T12:41:35;22.40;1.00
827;DHT22;395;48.132;11.608;2022-10-16T12:44:03;22.60;1.00
827;DHT22;395;48.132;11.608;2022-10-16T12:51:39;22.60;1.00
827;DHT22;395;48.132;11.608;2022-10-16T12:54:11;22.60;1.00
827;DHT22;395;48.132;11.608;2022-10-16T13:02:01;22.80;1.00
827;DHT22;395;48.132;11.608;2022-10-16T13:04:47;22.70;1.00
827;DHT22;395;48.132;11.608;2022-10-16T13:10:04;23.00;1.00
827;DHT22;395;48.132;11.608;2022-10-16T13:15:37;23.00;1.00
827;DHT22;395;48.132;11.608;2022-10-16T13:18:35;23.10;1.00
827;DHT22;395;48.132;11.608;2022-10-16T13:21:21;23.20;1.00
827;DHT22;395;48.132;11.608;2022-10-16T13:26:54;23.10;1.00
827;DHT22;395;48.132;11.608;2022-10-16T13:29:22;23.20;1.00
827;DHT22;395;48.132;11.608;2022-10-16T13:31:48;23.20;1.00
827;DHT22;395;48.132;11.608;2022-10-16T13:34:17;23.30;1.00
827;DHT22;395;48.132;11.608;2022-10-16T13:36:51;23.40;1.00
827;DHT22;395;48.132;11.608;2022-10-16T13:39:26;23.50;1.00
827;DHT22;395;48.132;11.608;2022-10-16T13:42:10;23.50;1.00
827;DHT22;395;48.132;11.608;2022-10-16T13:44:44;23.60;1.00
827;DHT22;395;48.132;11.608;2022-10-16T13:49:41;23.70;1.00
827;DHT22;395;48.132;11.608;2022-10-16T13:52:17;23.70;1.00
827;DHT22;395;48.132;11.608;2022-10-16T13:54:43;23.80;1.00
827;DHT22;395;48.132;11.608;2022-10-16T13:57:14;23.90;1.00
827;DHT22;395;48.132;11.608;2022-10-16T13:59:39;23.90;1.00
827;DHT22;395;48.132;11.608;2022-10-16T14:02:29;24.00;1.00
827;DHT22;395;48.132;11.608;2022-10-16T14:04:56;24.10;1.00
827;DHT22;395;48.132;11.608;2022-10-16T14:07:31;24.20;1.00
827;DHT22;395;48.132;11.608;2022-10-16T14:10:05;24.20;1.00
827;DHT22;395;48.132;11.608;2022-10-16T14:12:31;24.20;1.00
827;DHT22;395;48.132;11.608;2022-10-16T14:14:59;24.20;1.00
827;DHT22;395;48.132;11.608;2022-10-16T14:17:27;24.30;1.00
827;DHT22;395;48.132;11.608;2022-10-16T14:19:56;24.30;1.00
827;DHT22;395;48.132;11.608;2022-10-16T14:24:57;24.40;1.00
827;DHT22;395;48.132;11.608;2022-10-16T14:27:34;24.50;1.00
827;DHT22;395;48.132;11.608;2022-10-16T14:32:57;24.50;1.00
827;DHT22;395;48.132;11.608;2022-10-16T14:37:54;24.50;1.00
827;DHT22;395;48.132;11.608;2022-10-16T14:40:24;24.60;1.00
827;DHT22;395;48.132;11.608;2022-10-16T14:42:50;24.60;1.00
827;DHT22;395;48.132;11.608;2022-10-16T14:45:24;24.60;1.00
827;DHT22;395;48.132;11.608;2022-10-16T14:47:54;24.60;1.00
827;DHT22;395;48.132;11.608;2022-10-16T14:50:21;24.60;1.00
827;DHT22;395;48.132;11.608;2022-10-16T14:52:48;24.60;1.00
827;DHT22;395;48.132;11.608;2022-10-16T14:55:14;24.60;1.00
827;DHT22;395;48.132;11.608;2022-10-16T14:57:40;24.60;1.00
827;DHT22;395;48.132;11.608;2022-10-16T15:00:19;24.50;1.00
827;DHT22;395;48.132;11.608;2022-10-16T15:02:47;24.40;1.00
827;DHT22;395;48.132;11.608;2022-10-16T15:05:20;24.30;1.00
827;DHT22;395;48.132;11.608;2022-10-16T15:07:46;24.30;1.00
827;DHT22;395;48.132;11.608;2022-10-16T15:10:13;24.20;1.00
827;DHT22;395;48.132;11.608;2022-10-16T15:12:39;24.20;1.00
827;DHT22;395;48.132;11.608;2022-10-16T15:17:43;24.10;1.00
827;DHT22;395;48.132;11.608;2022-10-16T15:20:09;24.00;1.00
827;DHT22;395;48.132;11.608;2022-10-16T15:22:35;23.90;1.00
827;DHT22;395;48.132;11.608;2022-10-16T15:25:00;23.80;1.00
827;DHT22;395;48.132;11.608;2022-10-16T15:27:26;23.80;1.00
827;DHT22;395;48.132;11.608;2022-10-16T15:29:51;23.70;1.00
827;DHT22;395;48.132;11.608;2022-10-16T15:32:17;23.60;1.00
827;DHT22;395;48.132;11.608;2022-10-16T15:34:42;23.60;1.00
827;DHT22;395;48.132;11.608;2022-10-16T15:37:09;23.50;1.00
827;DHT22;395;48.132;11.608;2022-10-16T15:39:34;23.50;1.00
827;DHT22;395;48.132;11.608;2022-10-16T15:42:00;23.40;1.00
827;DHT22;395;48.132;11.608;2022-10-16T15:44:25;23.40;1.00
827;DHT22;395;48.132;11.608;2022-10-16T15:46:55;23.30;1.00
827;DHT22;395;48.132;11.608;2022-10-16T15:49:22;23.30;1.00
827;DHT22;395;48.132;11.608;2022-10-16T15:51:47;23.20;1.00
827;DHT22;395;48.132;11.608;2022-10-16T15:54:13;23.10;1.00
827;DHT22;395;48.132;11.608;2022-10-16T15:56:39;23.00;1.00
827;DHT22;395;48.132;11.608;2022-10-16T15:59:05;22.90;1.00
827;DHT22;395;48.132;11.608;2022-10-16T16:01:34;22.90;1.00
827;DHT22;395;48.132;11.608;2022-10-16T16:04:00;22.80;1.00
827;DHT22;395;48.132;11.608;2022-10-16T16:06:26;22.70;1.00
827;DHT22;395;48.132;11.608;2022-10-16T16:08:52;22.60;1.00
827;DHT22;395;48.132;11.608;2022-10-16T16:11:18;22.50;1.00
827;DHT22;395;48.132;11.608;2022-10-16T16:13:44;22.50;1.00
827;DHT22;395;48.132;11.608;2022-10-16T16:16:12;22.40;1.00
827;DHT22;395;48.132;11.608;2022-10-16T16:18:38;22.40;1.00
827;DHT22;395;48.132;11.608;2022-10-16T16:21:04;22.30;1.00
827;DHT22;395;48.132;11.608;2022-10-16T16:23:30;22.20;1.00
827;DHT22;395;48.132;11.608;2022-10-16T16:26:04;22.10;1.00
827;DHT22;395;48.132;11.608;2022-10-16T16:28:30;22.10;1.00
827;DHT22;395;48.132;11.608;2022-10-16T16:30:56;22.00;1.00
827;DHT22;395;48.132;11.608;2022-10-16T16:33:21;22.00;1.00
827;DHT22;395;48.132;11.608;2022-10-16T16:35:47;21.90;1.00
827;DHT22;395;48.132;11.608;2022-10-16T16:38:12;21.90;1.00
827;DHT22;395;48.132;11.608;2022-10-16T16:40:38;21.80;1.00
827;DHT22;395;48.132;11.608;2022-10-16T16:43:04;21.70;1.00
827;DHT22;395;48.132;11.608;2022-10-16T16:45:29;21.70;1.00
827;DHT22;395;48.132;11.608;2022-10-16T16:47:55;21.70;1.00
827;DHT22;395;48.132;11.608;2022-10-16T16:50:20;21.60;1.00
827;DHT22;395;48.132;11.608;2022-10-16T16:52:46;21.50;1.00
827;DHT22;395;48.132;11.608;2022-10-16T16:55:12;21.50;1.00
827;DHT22;395;48.132;11.608;2022-10-16T16:57:37;21.50;1.00
827;DHT22;395;48.132;11.608;2022-10-16T17:00:04;21.40;1.00
827;DHT22;395;48.132;11.608;2022-10-16T17:02:29;21.40;1.00
827;DHT22;395;48.132;11.608;2022-10-16T17:04:55;21.30;1.00
827;DHT22;395;48.132;11.608;2022-10-16T17:07:22;21.30;1.00
827;DHT22;395;48.132;11.608;2022-10-16T17:09:50;21.20;1.00
827;DHT22;395;48.132;11.608;2022-10-16T17:12:16;21.20;1.00
827;DHT22;395;48.132;11.608;2022-10-16T17:14:41;21.20;1.00
827;DHT22;395;48.132;11.608;2022-10-16T17:17:07;21.10;1.00
827;DHT22;395;48.132;11.608;2022-10-16T17:19:33;21.10;1.00
827;DHT22;395;48.132;11.608;2022-10-16T17:21:59;21.00;1.00
827;DHT22;395;48.132;11.608;2022-10-16T17:24:25;21.00;1.00
827;DHT22;395;48.132;11.608;2022-10-16T17:26:51;20.90;1.00
827;DHT22;395;48.132;11.608;2022-10-16T17:29:17;20.90;1.00
827;DHT22;395;48.132;11.608;2022-10-16T17:31:43;20.90;1.00
827;DHT22;395;48.132;11.608;2022-10-16T17:34:09;20.80;1.00
827;DHT22;395;48.132;11.608;2022-10-16T17:36:37;20.80;1.00
827;DHT22;395;48.132;11.608;2022-10-16T17:39:09;20.80;1.00
827;DHT22;395;48.132;11.608;2022-10-16T17:41:35;20.70;1.00
827;DHT22;395;48.132;11.608;2022-10-16T17:44:03;20.70;1.00
827;DHT22;395;48.132;11.608;2022-10-16T17:46:29;20.60;1.00
827;DHT22;395;48.132;11.608;2022-10-16T17:48:55;20.60;1.00
827;DHT22;395;48.132;11.608;2022-10-16T17:51:24;20.50;1.00
827;DHT22;395;48.132;11.608;2022-10-16T17:53:52;20.50;1.00
827;DHT22;395;48.132;11.608;2022-10-16T17:56:19;20.50;1.00
827;DHT22;395;48.132;11.608;2022-10-16T17:58:48;20.50;1.00
827;DHT22;395;48.132;11.608;2022-10-16T18:01:19;20.50;1.00
827;DHT22;395;48.132;11.608;2022-10-16T18:03:58;20.40;1.00
827;DHT22;395;48.132;11.608;2022-10-16T18:06:24;20.40;1.00
827;DHT22;395;48.132;11.608;2022-10-16T18:08:50;20.40;1.00
827;DHT22;395;48.132;11.608;2022-10-16T18:11:16;20.30;1.00
827;DHT22;395;48.132;11.608;2022-10-16T18:13:42;20.30;1.00
827;DHT22;395;48.132;11.608;2022-10-16T18:16:10;20.20;1.00
827;DHT22;395;48.132;11.608;2022-10-16T18:18:37;20.20;1.00
827;DHT22;395;48.132;11.608;2022-10-16T18:21:05;20.10;1.00
827;DHT22;395;48.132;11.608;2022-10-16T18:23:33;20.20;1.00
827;DHT22;395;48.132;11.608;2022-10-16T18:25:59;20.10;1.00
827;DHT22;395;48.132;11.608;2022-10-16T18:28:25;20.10;1.00
827;DHT22;395;48.132;11.608;2022-10-16T18:31:15;20.10;1.00